Time;durP1;ratioP1;P1;durP2;ratioP2;P2;SDS_P1;SDS_P2;PMS_P1;PMS_P2;Temp;Humidity;BMP_temperature;BMP_pressure;BME280_temperature;BME280_humidity;BME280_pressure;Samples;Min_cycle;Max_cycle;Signal;HPM_P1;HPM_P2
2022/01/17 00:01:28;;;;;;;40.30;17.73;;;;;;;10.28;64.88;103009.84;4990403;28;124113;-70
2022/01/17 00:03:55;;;;;;;40.88;17.40;;;;;;;10.28;65.14;103004.53;4993150;28;124289;-70
2022/01/17 00:06:23;;;;;;;34.13;16.63;;;;;;;10.28;65.00;103012.47;4991138;28;114230;-70
2022/01/17 00:08:50;;;;;;;35.72;16.17;;;;;;;10.28;64.90;103004.53;4984034;28;112984;-71
2022/01/17 00:11:18;;;;;;;35.83;16.35;;;;;;;10.27;65.16;103013.34;4990483;28;123768;-70
2022/01/17 00:13:47;;;;;;;34.20;16.45;;;;;;;10.27;64.91;103018.66;4990925;28;124688;-70
2022/01/17 00:16:20;;;;;;;35.28;16.20;;;;;;;10.27;64.64;103023.94;4991302;28;114604;-70
2022/01/17 00:21:16;;;;;;;40.55;16.95;;;;;;;10.28;64.99;103020.44;4989635;28;124596;-70
2022/01/17 00:23:44;;;;;;;33.63;15.98;;;;;;;10.28;65.00;103009.84;4989792;28;124625;-70
2022/01/17 00:26:11;;;;;;;36.50;16.83;;;;;;;10.28;65.14;103003.63;4989579;28;115501;-70
2022/01/17 00:28:38;;;;;;;36.30;16.65;;;;;;;10.27;65.17;103002.75;4990279;28;114450;-70
2022/01/17 00:31:05;;;;;;;38.47;16.63;;;;;;;10.27;64.93;102997.47;4996588;28;123158;-70
2022/01/17 00:33:33;;;;;;;37.60;16.88;;;;;;;10.26;65.20;103006.28;4989491;28;123117;-70
2022/01/17 00:36:01;;;;;;;35.95;16.42;;;;;;;10.26;65.21;103011.59;4989899;28;113699;-70
2022/01/17 00:38:28;;;;;;;32.63;15.57;;;;;;;10.27;64.88;103012.50;4989781;28;113923;-70
2022/01/17 00:40:56;;;;;;;32.28;15.35;;;;;;;10.26;64.82;103005.41;4987660;28;124235;-69
2022/01/17 00:43:23;;;;;;;36.53;16.10;;;;;;;10.26;64.91;103005.41;4989924;28;124453;-70
2022/01/17 00:45:50;;;;;;;32.50;14.77;;;;;;;10.25;65.11;103004.56;4988382;28;113458;-70
2022/01/17 00:48:17;;;;;;;30.60;14.38;;;;;;;10.25;65.10;103001.91;4988380;28;112862;-70
2022/01/17 00:50:47;;;;;;;31.00;14.45;;;;;;;10.25;65.12;103004.56;4988652;28;124707;-70
2022/01/17 00:53:14;;;;;;;30.52;13.57;;;;;;;10.24;64.90;103010.72;4989483;28;123835;-69
2022/01/17 00:55:41;;;;;;;31.83;14.02;;;;;;;10.25;65.13;103007.19;4989578;28;113493;-68
2022/01/17 00:58:08;;;;;;;31.58;13.32;;;;;;;10.25;64.76;103009.84;4989688;28;113549;-69
2022/01/17 01:00:36;;;;;;;29.00;13.27;;;;;;;10.25;65.11;103020.44;4988968;28;124048;-69
2022/01/17 01:03:04;;;;;;;29.23;13.75;;;;;;;10.25;65.03;103020.44;4989344;28;123790;-69
2022/01/17 01:05:31;;;;;;;29.30;14.07;;;;;;;10.24;65.07;103023.97;4986619;28;114484;-69
2022/01/17 01:07:59;;;;;;;32.97;13.95;;;;;;;10.26;65.20;103031.91;4990254;28;113832;-69
2022/01/17 01:10:26;;;;;;;29.42;13.25;;;;;;;10.25;64.86;103031.03;4988880;28;123754;-69
2022/01/17 01:12:53;;;;;;;30.20;13.63;;;;;;;10.26;64.97;103026.63;4989310;28;124027;-69
2022/01/17 01:15:47;;;;;;;30.25;13.02;;;;;;;10.25;64.82;103031.03;4989086;28;115102;-69
2022/01/17 01:18:30;;;;;;;22.08;11.75;;;;;;;10.25;64.88;103030.16;4988569;28;114273;-68
2022/01/17 01:29:01;;;;;;;27.13;10.73;;;;;;;10.20;65.16;103022.25;4986586;28;113855;-69
2022/01/17 01:31:44;;;;;;;19.77;10.90;;;;;;;10.21;64.88;103031.97;4978920;28;124020;-69
2022/01/17 01:34:12;;;;;;;23.35;10.88;;;;;;;10.23;64.68;103032.81;4983569;28;124109;-69
2022/01/17 01:36:41;;;;;;;22.83;11.07;;;;;;;10.23;64.92;103043.41;4988972;28;114046;-68
2022/01/17 01:39:09;;;;;;;24.33;11.32;;;;;;;10.23;65.04;103042.53;4988830;28;113876;-69
2022/01/17 01:41:43;;;;;;;20.75;10.13;;;;;;;10.23;64.85;103038.13;4988229;28;123960;-69
2022/01/17 01:44:12;;;;;;;24.45;10.95;;;;;;;10.23;64.74;103043.41;4982458;28;125128;-69
2022/01/17 01:46:40;;;;;;;25.25;10.85;;;;;;;10.25;65.03;103041.63;4987977;28;113751;-70
2022/01/17 01:49:08;;;;;;;26.13;10.35;;;;;;;10.26;64.86;103037.19;4989659;28;113967;-69
2022/01/17 01:51:35;;;;;;;20.63;10.35;;;;;;;10.26;64.79;103027.47;4988113;28;123496;-69
2022/01/17 01:54:03;;;;;;;20.90;10.75;;;;;;;10.28;64.69;103019.53;4988618;28;124280;-69
2022/01/17 01:56:30;;;;;;;23.77;10.23;;;;;;;10.26;64.77;103032.78;4988108;28;112145;-69
2022/01/17 01:58:57;;;;;;;24.30;9.57;;;;;;;10.28;64.81;103036.31;4988627;28;114156;-69
2022/01/17 02:01:24;;;;;;;18.55;9.27;;;;;;;10.27;64.65;103029.25;4986962;28;123343;-69
2022/01/17 02:03:52;;;;;;;16.58;8.07;;;;;;;10.27;64.79;103028.38;4988357;28;124785;-69
2022/01/17 02:06:19;;;;;;;24.33;8.05;;;;;;;10.26;64.72;103030.13;4988098;28;116239;-69
2022/01/17 02:08:46;;;;;;;19.67;7.15;;;;;;;10.26;64.54;103048.66;4988590;28;115255;-69
2022/01/17 02:11:13;;;;;;;16.90;7.18;;;;;;;10.27;64.45;103050.44;4988427;28;124144;-69
2022/01/17 02:13:40;;;;;;;16.10;6.95;;;;;;;10.27;64.89;103050.44;4988452;28;122819;-69
2022/01/17 02:16:11;;;;;;;15.13;7.57;;;;;;;10.28;64.61;103046.00;4990477;28;113574;-69
2022/01/17 02:18:39;;;;;;;17.25;7.82;;;;;;;10.26;64.28;103043.38;4990362;28;114066;-68
2022/01/17 02:23:53;;;;;;;15.90;8.02;;;;;;;10.24;64.37;103034.56;4985647;28;123655;-69
2022/01/17 02:26:21;;;;;;;19.55;7.95;;;;;;;10.25;64.72;103031.03;4986355;28;113926;-68
2022/01/17 02:28:51;;;;;;;19.65;8.82;;;;;;;10.24;64.48;103023.97;4987111;28;112699;-68
2022/01/17 02:31:20;;;;;;;19.70;8.50;;;;;;;10.21;64.28;103039.91;4987502;28;125287;-69
2022/01/17 02:33:52;;;;;;;22.75;9.10;;;;;;;10.18;64.12;103039.91;4988519;28;124005;-69
2022/01/17 02:36:21;;;;;;;18.88;8.20;;;;;;;10.15;64.07;103034.63;4986260;28;114332;-69
2022/01/17 02:38:48;;;;;;;20.70;9.35;;;;;;;10.12;64.38;103034.69;4988649;28;114151;-69
2022/01/17 02:41:15;;;;;;;21.63;8.75;;;;;;;10.10;64.26;103036.47;4989134;28;124722;-69
2022/01/17 02:43:45;;;;;;;18.65;8.88;;;;;;;10.07;64.07;103041.78;4991940;28;124623;-69
2022/01/17 02:48:41;;;;;;;17.88;9.23;;;;;;;10.01;64.05;103036.53;4992277;28;113851;-69
2022/01/17 02:51:08;;;;;;;18.10;8.13;;;;;;;9.98;63.99;103039.19;4991115;28;124054;-69
2022/01/17 02:53:35;;;;;;;19.23;8.57;;;;;;;9.92;63.73;103037.47;4991995;28;124224;-69
2022/01/17 02:56:08;;;;;;;18.30;7.53;;;;;;;9.88;63.91;103036.59;4989948;28;114992;-69
2022/01/17 02:58:37;;;;;;;18.65;7.60;;;;;;;9.84;63.83;103029.56;4988767;28;113803;-69
2022/01/17 03:01:08;;;;;;;18.85;7.95;;;;;;;9.80;63.81;103043.72;4990908;28;124019;-69
2022/01/17 03:03:36;;;;;;;19.17;7.07;;;;;;;9.75;63.65;103042.88;4991109;28;123283;-69
2022/01/17 03:06:03;;;;;;;18.50;7.53;;;;;;;9.71;63.66;103043.78;4991182;28;114371;-69
2022/01/17 03:08:32;;;;;;;16.52;6.97;;;;;;;9.67;63.68;103036.75;4990255;28;114624;-68
2022/01/17 03:11:05;;;;;;;18.38;7.00;;;;;;;9.63;63.81;103035.00;4991172;28;123767;-69
2022/01/17 03:13:36;;;;;;;17.17;6.97;;;;;;;9.60;63.89;103024.44;4987583;28;123710;-69
2022/01/17 03:16:08;;;;;;;13.75;6.65;;;;;;;9.57;64.00;103029.72;4990894;28;113447;-69
2022/01/17 03:18:39;;;;;;;12.48;5.85;;;;;;;9.55;64.02;103027.13;4988662;28;113870;-69
2022/01/17 03:21:09;;;;;;;16.10;5.82;;;;;;;9.52;63.91;103037.72;4987467;28;123837;-69
2022/01/17 03:23:38;;;;;;;11.52;5.53;;;;;;;9.51;63.98;103052.72;4990930;28;123697;-69
2022/01/17 03:26:06;;;;;;;12.60;4.70;;;;;;;9.50;64.11;103050.94;4991517;28;113998;-69
2022/01/17 03:28:34;;;;;;;11.70;4.40;;;;;;;9.48;63.99;103058.00;4985904;28;114653;-69
2022/01/17 03:31:02;;;;;;;12.20;4.38;;;;;;;9.48;64.00;103052.72;4987725;28;124654;-69
2022/01/17 03:33:29;;;;;;;15.95;4.32;;;;;;;9.47;63.94;103045.66;4987009;28;123849;-69
2022/01/17 03:35:57;;;;;;;13.88;5.15;;;;;;;9.47;64.04;103045.66;4991093;28;113865;-69
2022/01/17 03:38:30;;;;;;;16.85;6.18;;;;;;;9.46;63.73;103054.50;4991430;28;113922;-69
2022/01/17 03:41:00;;;;;;;19.90;7.13;;;;;;;9.46;63.86;103056.28;4988702;28;124791;-69
2022/01/17 03:43:27;;;;;;;22.60;8.07;;;;;;;9.44;63.90;103040.41;4990932;28;123430;-69
2022/01/17 03:45:57;;;;;;;20.17;8.55;;;;;;;9.42;63.80;103036.88;4990705;28;115474;-70
2022/01/17 03:48:26;;;;;;;17.25;6.38;;;;;;;9.41;63.75;103040.41;4993252;28;115246;-69
2022/01/17 03:50:55;;;;;;;11.30;4.50;;;;;;;9.40;63.47;103043.94;4992266;28;123971;-68
2022/01/17 03:53:23;;;;;;;9.25;3.10;;;;;;;9.38;63.29;103029.84;4974380;28;122067;-69
2022/01/17 03:55:51;;;;;;;10.80;3.60;;;;;;;9.34;63.26;103036.03;4992021;28;114602;-69
2022/01/17 03:58:19;;;;;;;6.88;3.35;;;;;;;9.30;63.30;103037.78;4991988;28;114079;-69
2022/01/17 04:00:47;;;;;;;8.77;3.25;;;;;;;9.26;63.24;103045.75;4990963;28;124152;-69
2022/01/17 04:03:15;;;;;;;10.93;3.60;;;;;;;9.22;63.29;103054.59;4989958;28;123989;-69
2022/01/17 04:05:42;;;;;;;10.65;3.97;;;;;;;9.18;63.12;103060.78;4991842;28;114303;-69
2022/01/17 04:08:10;;;;;;;9.18;3.70;;;;;;;9.12;62.95;103069.63;4992674;28;114135;-69
2022/01/17 04:10:38;;;;;;;8.48;3.88;;;;;;;9.07;63.17;103072.25;4991566;28;124244;-69
2022/01/17 04:13:07;;;;;;;11.05;4.05;;;;;;;9.02;62.95;103073.16;4992707;28;123972;-69
2022/01/17 04:15:36;;;;;;;13.23;3.63;;;;;;;8.97;63.25;103065.25;4988663;28;114211;-69
2022/01/17 04:18:06;;;;;;;11.95;3.90;;;;;;;8.92;63.20;103069.66;4992328;28;113814;-69
2022/01/17 04:20:34;;;;;;;9.27;4.55;;;;;;;8.88;63.15;103065.28;4989266;28;124680;-69
2022/01/17 04:23:06;;;;;;;13.20;4.60;;;;;;;8.84;63.19;103058.25;4992328;28;124759;-68
2022/01/17 04:25:35;;;;;;;10.65;3.92;;;;;;;8.79;63.21;103068.81;4988547;28;114520;-69
2022/01/17 04:28:04;;;;;;;11.93;4.40;;;;;;;8.74;63.36;103066.19;4992713;28;114210;-68
2022/01/17 04:30:32;;;;;;;11.82;4.65;;;;;;;8.71;63.04;103058.25;4991331;28;123998;-68
2022/01/17 04:32:59;;;;;;;12.43;4.25;;;;;;;8.67;63.21;103056.50;4988850;28;124510;-69
2022/01/17 04:35:27;;;;;;;11.40;5.00;;;;;;;8.65;63.46;103057.41;4991182;28;114897;-69
2022/01/17 04:37:57;;;;;;;10.52;4.45;;;;;;;8.60;63.13;103054.75;4992031;28;114819;-68
2022/01/17 04:40:25;;;;;;;12.30;4.97;;;;;;;8.57;63.44;103060.91;4991193;28;125787;-69
2022/01/17 04:42:56;;;;;;;11.00;4.43;;;;;;;8.55;63.30;103067.06;4989633;28;123814;-69
2022/01/17 04:45:23;;;;;;;12.52;4.47;;;;;;;8.50;63.06;103069.72;4991508;28;113839;-69
2022/01/17 04:47:52;;;;;;;8.63;4.40;;;;;;;8.47;63.28;103068.84;4989679;28;114053;-68
2022/01/17 04:50:24;;;;;;;14.13;4.95;;;;;;;8.44;63.13;103074.09;4991288;28;124054;-68
2022/01/17 04:52:54;;;;;;;11.05;4.30;;;;;;;8.41;63.31;103090.81;4988561;28;124317;-68
2022/01/17 04:55:23;;;;;;;9.02;4.32;;;;;;;8.38;63.59;103091.69;4990415;28;112758;-69
2022/01/17 04:57:50;;;;;;;12.25;4.72;;;;;;;8.36;63.36;103092.56;5004326;28;113626;-68
2022/01/17 05:00:20;;;;;;;14.93;5.07;;;;;;;8.33;63.36;103093.44;4990505;28;124389;-69
2022/01/17 05:02:47;;;;;;;12.25;4.13;;;;;;;8.33;63.26;103098.72;4991432;28;126303;-69
2022/01/17 05:05:16;;;;;;;13.93;4.72;;;;;;;8.33;63.78;103114.56;4988454;28;114173;-69
2022/01/17 05:07:43;;;;;;;9.20;4.20;;;;;;;8.32;63.43;103118.06;4991727;28;113438;-69
2022/01/17 05:10:13;;;;;;;9.65;4.18;;;;;;;8.32;63.94;103120.72;4990853;28;123848;-69
2022/01/17 05:12:43;;;;;;;11.32;3.78;;;;;;;8.33;63.72;103104.00;4989255;28;123222;-69
2022/01/17 05:18:11;;;;;;;14.55;4.15;;;;;;;8.35;63.76;103091.69;4989061;28;115564;-69
2022/01/17 05:20:42;;;;;;;9.90;4.13;;;;;;;8.36;63.63;103093.47;4988771;28;122819;-69
2022/01/17 05:23:09;;;;;;;10.07;3.88;;;;;;;8.35;63.83;103096.97;4990630;28;123544;-68
2022/01/17 05:25:37;;;;;;;10.93;3.88;;;;;;;8.37;63.91;103103.13;4990913;28;115371;-69
2022/01/17 05:28:05;;;;;;;11.73;3.80;;;;;;;8.39;63.67;103098.72;4991527;28;115014;-69
2022/01/17 05:30:32;;;;;;;9.13;3.97;;;;;;;8.42;64.08;103102.28;4986083;28;124037;-69
2022/01/17 05:32:59;;;;;;;8.73;3.47;;;;;;;8.44;64.07;103100.50;4990629;28;124186;-69
2022/01/17 05:35:27;;;;;;;11.07;3.70;;;;;;;8.45;63.73;103103.16;4988481;28;114520;-69
2022/01/17 05:37:54;;;;;;;7.55;3.30;;;;;;;8.46;63.80;103114.63;4989443;28;114089;-69
2022/01/17 05:40:21;;;;;;;15.23;4.03;;;;;;;8.46;63.92;103110.22;4990386;28;124011;-69
2022/01/17 05:42:48;;;;;;;10.35;3.90;;;;;;;8.47;63.97;103101.41;4990374;28;123638;-69
2022/01/17 05:45:17;;;;;;;11.52;4.00;;;;;;;8.46;63.61;103104.06;4990934;28;113196;-69
2022/01/17 05:47:45;;;;;;;12.63;4.00;;;;;;;8.46;63.70;103104.06;4990916;28;113516;-69
2022/01/17 05:50:12;;;;;;;14.25;3.88;;;;;;;8.44;63.76;103100.50;4988380;28;123845;-68
2022/01/17 05:52:40;;;;;;;11.02;4.10;;;;;;;8.42;63.83;103091.72;4990258;28;124561;-68
2022/01/17 05:55:10;;;;;;;12.20;3.05;;;;;;;8.39;63.68;103090.81;4990661;28;113980;-68
2022/01/17 05:57:38;;;;;;;13.15;3.40;;;;;;;8.37;63.71;103084.66;4988639;28;113848;-69
2022/01/17 06:00:09;;;;;;;8.13;3.20;;;;;;;8.36;63.58;103088.19;4989700;28;125165;-69
2022/01/17 06:02:36;;;;;;;8.50;3.35;;;;;;;8.34;63.75;103094.31;4987005;28;123462;-68
2022/01/17 06:05:03;;;;;;;9.93;3.70;;;;;;;8.32;63.67;103096.97;4985880;28;113698;-69
2022/01/17 06:07:30;;;;;;;11.02;3.55;;;;;;;8.32;63.61;103096.97;4989853;28;114154;-68
2022/01/17 06:09:57;;;;;;;8.75;3.30;;;;;;;8.29;63.56;103096.97;4988314;28;123859;-69
2022/01/17 06:12:24;;;;;;;10.13;3.88;;;;;;;8.28;63.51;103097.84;4989738;28;124087;-69
2022/01/17 06:14:51;;;;;;;9.20;3.75;;;;;;;8.28;63.78;103091.69;4989783;28;115381;-68
2022/01/17 06:17:18;;;;;;;10.98;3.58;;;;;;;8.25;63.74;103100.50;4992875;28;114767;-69
2022/01/17 06:19:45;;;;;;;11.95;4.15;;;;;;;8.23;63.95;103099.63;4993409;28;123842;-69
2022/01/17 06:22:13;;;;;;;10.93;3.55;;;;;;;8.22;63.55;103094.31;4993671;28;124312;-69
2022/01/17 06:24:40;;;;;;;12.35;4.25;;;;;;;8.18;63.79;103098.72;4987312;28;113939;-69
2022/01/17 06:27:07;;;;;;;13.07;4.35;;;;;;;8.17;63.90;103118.97;4993910;28;113148;-69
2022/01/17 06:29:34;;;;;;;11.88;4.72;;;;;;;8.16;63.81;103121.59;4994021;28;123226;-68
2022/01/17 06:32:01;;;;;;;12.38;4.10;;;;;;;8.15;63.80;103125.97;4993218;28;124190;-70
2022/01/17 06:34:48;;;;;;;12.00;4.07;;;;;;;8.15;64.00;103122.47;4993988;28;113718;-70
2022/01/17 06:37:16;;;;;;;10.40;4.30;;;;;;;8.14;63.65;103123.34;4991396;28;113929;-70
2022/01/17 06:39:43;;;;;;;7.75;3.83;;;;;;;8.14;63.88;103118.06;4993081;28;123897;-70
2022/01/17 06:42:11;;;;;;;13.63;4.40;;;;;;;8.14;63.79;103118.06;4975543;28;122869;-69
2022/01/17 06:44:38;;;;;;;14.13;4.88;;;;;;;8.13;64.16;103121.59;4993756;28;114794;-70
2022/01/17 06:47:05;;;;;;;11.63;4.38;;;;;;;8.12;64.17;103115.44;4993820;28;113996;-69
2022/01/17 06:49:32;;;;;;;12.55;4.68;;;;;;;8.12;63.90;103104.88;4993352;28;124965;-70
2022/01/17 06:51:59;;;;;;;12.32;5.30;;;;;;;8.13;63.81;103106.63;4992723;28;123072;-70
2022/01/17 06:54:26;;;;;;;11.65;5.13;;;;;;;8.13;63.88;103121.59;4993732;28;114058;-70
2022/01/17 06:56:53;;;;;;;13.15;5.85;;;;;;;8.14;64.18;103133.91;4992415;28;113910;-69
2022/01/17 06:59:20;;;;;;;14.00;6.03;;;;;;;8.14;63.84;103139.19;4991796;28;124064;-70
2022/01/17 07:01:47;;;;;;;11.82;5.57;;;;;;;8.14;63.96;103144.47;4991388;28;123010;-69
2022/01/17 07:04:14;;;;;;;13.25;5.45;;;;;;;8.15;64.18;103151.50;4992713;28;113311;-70
2022/01/17 07:06:42;;;;;;;12.90;5.70;;;;;;;8.15;64.04;103152.38;4992492;28;114865;-70
2022/01/17 07:09:11;;;;;;;14.43;5.90;;;;;;;8.16;64.21;103169.09;4993298;28;123896;-69
2022/01/17 07:11:39;;;;;;;15.15;5.88;;;;;;;8.17;64.32;103168.22;4990713;28;123709;-70
2022/01/17 07:14:08;;;;;;;15.30;6.40;;;;;;;8.18;64.27;103154.16;4991882;28;114277;-70
2022/01/17 07:16:37;;;;;;;16.77;6.13;;;;;;;8.19;64.37;103142.69;4992500;28;114079;-70
2022/01/17 07:19:04;;;;;;;15.98;6.70;;;;;;;8.21;64.10;103146.22;4994959;28;125229;-70
2022/01/17 07:21:32;;;;;;;17.52;5.82;;;;;;;8.21;64.29;103146.22;4991250;28;122802;-70
2022/01/17 07:24:00;;;;;;;14.18;5.90;;;;;;;8.22;64.42;103150.63;4992947;28;114223;-70
2022/01/17 07:26:28;;;;;;;14.38;6.28;;;;;;;8.23;64.48;103144.50;4990620;28;113451;-70
2022/01/17 07:28:55;;;;;;;12.90;6.43;;;;;;;8.24;64.58;103133.03;4991310;28;123491;-70
2022/01/17 07:31:22;;;;;;;18.85;6.60;;;;;;;8.24;64.59;103130.41;4985773;28;123817;-69
2022/01/17 07:33:49;;;;;;;16.23;6.40;;;;;;;8.25;64.55;103137.47;4990623;28;113886;-69
2022/01/17 07:36:28;;;;;;;20.48;6.82;;;;;;;8.24;64.17;103146.25;4990540;28;113810;-70
2022/01/17 07:38:57;;;;;;;15.90;6.63;;;;;;;8.25;64.42;103152.38;4992339;28;124092;-70
2022/01/17 07:41:25;;;;;;;15.50;7.07;;;;;;;8.24;64.19;103162.06;4992409;28;122978;-70
2022/01/17 07:44:02;;;;;;;14.45;7.10;;;;;;;8.23;64.26;103170.91;4993052;28;113436;-70
2022/01/17 07:46:35;;;;;;;17.52;6.68;;;;;;;8.24;64.52;103172.63;4992107;28;114217;-70
2022/01/17 07:49:10;;;;;;;15.55;7.00;;;;;;;8.25;64.46;103171.78;4988202;28;124175;-70
2022/01/17 07:51:40;;;;;;;17.50;7.43;;;;;;;8.25;64.41;103174.41;4986569;28;122844;-71
2022/01/17 07:54:10;;;;;;;13.10;7.15;;;;;;;8.27;64.64;103172.66;4992785;28;114963;-70
2022/01/17 07:56:38;;;;;;;18.60;7.38;;;;;;;8.30;64.89;103183.19;4992053;28;115392;-70
2022/01/17 07:59:07;;;;;;;14.43;7.05;;;;;;;8.32;64.67;103181.44;4989058;28;124505;-71
2022/01/17 08:01:34;;;;;;;18.80;7.53;;;;;;;8.36;64.65;103166.50;4990140;28;124176;-71
2022/01/17 08:04:03;;;;;;;16.92;7.57;;;;;;;8.38;65.06;103180.56;4992352;28;114714;-71
2022/01/17 08:06:30;;;;;;;17.98;8.10;;;;;;;8.42;64.92;103176.22;4991058;28;112306;-71
2022/01/17 08:08:58;;;;;;;20.27;7.63;;;;;;;8.46;65.05;103183.28;4988689;28;124073;-71
2022/01/17 08:11:25;;;;;;;18.52;7.90;;;;;;;8.50;64.80;103190.34;4991517;28;124733;-70
2022/01/17 08:13:52;;;;;;;18.45;8.07;;;;;;;8.54;64.95;103186.81;5006862;28;113422;-71
2022/01/17 08:16:19;;;;;;;18.08;8.57;;;;;;;8.55;64.83;103183.28;4992637;28;113858;-71
2022/01/17 08:18:46;;;;;;;18.05;8.18;;;;;;;8.58;64.77;103188.56;4989781;28;123197;-71
2022/01/17 08:21:14;;;;;;;15.48;7.43;;;;;;;8.63;64.86;103194.75;4993064;28;123786;-70
2022/01/17 08:23:41;;;;;;;19.42;8.43;;;;;;;8.66;64.76;103213.22;4994064;28;113336;-71
2022/01/17 08:26:08;;;;;;;20.67;8.07;;;;;;;8.67;64.76;103199.16;4993418;28;113495;-71
2022/01/17 08:28:35;;;;;;;15.07;7.65;;;;;;;8.70;64.79;103201.81;4993082;28;126193;-71
2022/01/17 08:31:03;;;;;;;17.75;7.88;;;;;;;8.72;65.02;103186.84;4993304;28;124030;-71
2022/01/17 08:33:50;;;;;;;18.25;7.63;;;;;;;8.74;64.90;103198.28;4990645;28;114124;-70
2022/01/17 08:36:19;;;;;;;15.85;7.68;;;;;;;8.81;65.08;103195.63;4993409;28;113739;-71
2022/01/17 08:38:47;;;;;;;15.85;7.45;;;;;;;8.82;65.00;103186.84;4985980;28;123884;-71
2022/01/17 08:41:17;;;;;;;18.45;8.10;;;;;;;8.85;64.97;103192.97;4984427;28;124117;-71
2022/01/17 08:43:48;;;;;;;18.80;7.60;;;;;;;8.88;64.72;103197.41;4988343;28;114690;-72
2022/01/17 08:46:16;;;;;;;16.08;7.95;;;;;;;8.91;65.15;103192.09;4989365;28;113774;-71
2022/01/17 08:48:43;;;;;;;18.90;7.40;;;;;;;8.95;65.18;103188.59;4988597;28;123695;-71
2022/01/17 08:51:11;;;;;;;19.13;8.60;;;;;;;8.98;65.05;103191.22;4984093;28;124691;-71
2022/01/17 08:53:38;;;;;;;20.67;7.82;;;;;;;9.01;65.05;103203.56;4990402;28;114445;-70
2022/01/17 08:56:05;;;;;;;17.35;8.38;;;;;;;9.03;64.73;103202.69;4991253;28;113858;-70
2022/01/17 08:58:33;;;;;;;20.20;8.43;;;;;;;9.05;65.04;103206.19;4991138;28;125411;-71
2022/01/17 09:01:00;;;;;;;19.50;7.68;;;;;;;9.11;65.33;103194.75;4964412;28;123232;-70
2022/01/17 09:03:27;;;;;;;20.98;8.13;;;;;;;9.15;65.15;103194.75;4992042;28;114440;-71
2022/01/17 09:05:55;;;;;;;20.23;7.80;;;;;;;9.20;64.92;103204.44;4992582;28;113650;-70
2022/01/17 09:08:23;;;;;;;19.35;8.25;;;;;;;9.24;65.03;103195.59;4991545;28;124487;-70
2022/01/17 09:10:54;;;;;;;15.80;7.70;;;;;;;9.27;64.91;103196.50;4992518;28;125637;-70
2022/01/17 09:13:21;;;;;;;22.63;8.93;;;;;;;9.31;64.89;103213.22;4988803;28;114588;-71
2022/01/17 09:15:48;;;;;;;21.05;8.27;;;;;;;9.33;64.98;103222.03;4991908;28;114187;-70
2022/01/17 09:18:17;;;;;;;18.27;7.82;;;;;;;9.38;64.84;103232.59;4975038;28;123585;-71
2022/01/17 09:20:44;;;;;;;21.20;8.52;;;;;;;9.41;64.71;103236.13;4992799;28;123603;-71
2022/01/17 09:23:12;;;;;;;20.27;8.38;;;;;;;9.45;64.83;103248.44;4991656;28;114338;-70
2022/01/17 09:25:40;;;;;;;17.38;8.50;;;;;;;9.49;64.87;103241.41;4993041;28;113905;-71
2022/01/17 09:28:07;;;;;;;19.23;9.25;;;;;;;9.53;65.03;103241.41;4992506;28;124480;-71
2022/01/17 09:30:34;;;;;;;19.65;9.20;;;;;;;9.58;64.78;103237.88;4991953;28;124004;-71
2022/01/17 09:33:03;;;;;;;22.02;9.75;;;;;;;9.62;64.76;103240.47;4992080;28;115380;-71
2022/01/17 09:35:31;;;;;;;21.73;9.15;;;;;;;9.66;64.99;103236.06;4990995;28;115621;-71
2022/01/17 09:37:59;;;;;;;22.75;8.65;;;;;;;9.69;64.62;103233.44;4991790;28;123166;-71
2022/01/17 09:40:26;;;;;;;18.63;8.10;;;;;;;9.71;64.65;103234.31;4996290;28;122235;-71
2022/01/17 09:42:56;;;;;;;17.90;7.82;;;;;;;9.73;64.56;103245.75;4991118;28;114562;-71
2022/01/17 09:45:23;;;;;;;21.15;7.50;;;;;;;9.76;64.59;103243.13;4991338;28;113926;-70
2022/01/17 09:47:50;;;;;;;17.67;7.35;;;;;;;9.79;64.80;103258.97;4990451;28;123478;-70
2022/01/17 09:50:22;;;;;;;18.98;7.57;;;;;;;9.83;64.81;103260.75;4991565;28;124710;-71
2022/01/17 09:52:53;;;;;;;17.30;7.10;;;;;;;9.86;64.63;103273.94;4987944;28;114564;-71
2022/01/17 09:55:25;;;;;;;20.88;7.45;;;;;;;9.89;64.71;103281.03;4988742;28;113296;-71
2022/01/17 09:57:54;;;;;;;19.88;7.15;;;;;;;9.92;64.71;103271.28;4989857;28;124909;-71
2022/01/17 10:00:26;;;;;;;22.15;8.18;;;;;;;9.94;64.65;103290.72;4989483;28;123884;-71
2022/01/17 10:02:56;;;;;;;25.45;9.68;;;;;;;9.98;64.46;103301.28;4990215;28;114304;-70
2022/01/17 10:05:24;;;;;;;23.40;8.60;;;;;;;10.00;64.36;103291.56;4990993;28;113770;-70
2022/01/17 10:08:13;;;;;;;29.05;11.43;;;;;;;10.02;64.51;103293.34;4995205;28;125126;-70
2022/01/17 10:10:44;;;;;;;29.65;11.18;;;;;;;10.03;64.39;103288.91;4992788;28;123684;-71
2022/01/17 10:13:23;;;;;;;29.13;9.80;;;;;;;10.06;64.61;103283.63;4990907;28;114263;-71
2022/01/17 10:16:01;;;;;;;29.00;10.90;;;;;;;10.08;64.44;103303.03;4989694;28;114263;-70
2022/01/17 10:18:30;;;;;;;29.30;10.82;;;;;;;10.09;64.10;103299.47;4990645;28;124032;-72
2022/01/17 10:21:12;;;;;;;31.13;10.93;;;;;;;10.10;64.58;103285.34;4987630;28;123733;-70
2022/01/17 10:24:06;;;;;;;24.85;10.43;;;;;;;10.13;64.25;103290.63;4988388;28;115512;-70
2022/01/17 10:29:34;;;;;;;22.48;9.45;;;;;;;10.18;64.17;103286.19;4991707;28;123509;-71
2022/01/17 10:37:22;;;;;;;34.25;11.55;;;;;;;10.24;64.50;103299.41;4988961;28;113417;-68
2022/01/17 10:40:01;;;;;;;27.40;10.25;;;;;;;10.26;64.35;103297.63;4991304;28;124071;-69
2022/01/17 10:42:35;;;;;;;28.77;10.88;;;;;;;10.29;64.20;103292.31;4990698;28;123702;-69
2022/01/17 10:45:10;;;;;;;29.67;10.07;;;;;;;10.32;64.32;103308.25;4989791;28;114504;-68
2022/01/17 10:47:40;;;;;;;24.88;9.35;;;;;;;10.35;64.20;103328.53;4989572;28;114187;-68
2022/01/17 10:50:09;;;;;;;19.55;7.03;;;;;;;10.38;64.25;103311.75;5005634;28;124417;-69
2022/01/17 10:52:40;;;;;;;19.25;6.68;;;;;;;10.39;64.31;103302.91;4989950;28;123858;-70
2022/01/17 10:55:22;;;;;;;18.42;6.53;;;;;;;10.42;64.24;103313.50;4989930;28;113503;-69
2022/01/17 10:57:51;;;;;;;24.92;6.03;;;;;;;10.45;63.95;103332.03;5006708;28;112942;-69
2022/01/17 11:00:28;;;;;;;17.08;5.57;;;;;;;10.47;64.28;103327.59;4991486;28;123619;-69
2022/01/17 11:02:57;;;;;;;18.35;6.25;;;;;;;10.48;64.31;103326.72;4988950;28;123773;-69
2022/01/17 11:05:28;;;;;;;20.23;5.85;;;;;;;10.51;63.94;103337.31;4994160;28;113779;-68
2022/01/17 11:07:58;;;;;;;16.50;5.38;;;;;;;10.53;64.17;103340.84;4996154;28;114149;-69
2022/01/17 11:10:38;;;;;;;12.25;5.05;;;;;;;10.54;63.98;103345.25;4997346;28;123898;-69
2022/01/17 11:13:11;;;;;;;15.45;5.00;;;;;;;10.59;63.93;103343.47;5013681;28;124081;-70
2022/01/17 11:15:39;;;;;;;17.88;4.55;;;;;;;10.62;64.13;103348.72;4994108;28;114538;-70
2022/01/17 11:18:20;;;;;;;15.07;4.68;;;;;;;10.63;64.06;103328.41;4993995;28;114015;-70
2022/01/17 11:20:51;;;;;;;16.02;5.35;;;;;;;10.64;64.03;103331.06;4993839;28;123873;-70
2022/01/17 11:23:21;;;;;;;18.55;5.38;;;;;;;10.68;63.93;103326.59;4994507;28;123977;-72
2022/01/17 11:25:54;;;;;;;14.52;4.32;;;;;;;10.70;63.80;103315.13;4972656;28;114881;-72
2022/01/17 11:28:27;;;;;;;20.23;5.60;;;;;;;10.73;63.67;103321.28;4972169;28;113834;-72
2022/01/17 11:31:04;;;;;;;16.63;4.38;;;;;;;10.76;63.96;103318.63;4985671;28;123757;-72
2022/01/17 11:33:34;;;;;;;20.77;4.65;;;;;;;10.78;63.73;103322.16;5002021;28;122624;-72
2022/01/17 11:36:02;;;;;;;15.05;4.38;;;;;;;10.80;63.75;103317.72;4993232;28;113845;-72
2022/01/17 11:38:40;;;;;;;13.93;3.95;;;;;;;10.81;63.79;103312.41;4993071;28;113914;-72
2022/01/17 11:41:21;;;;;;;12.57;4.22;;;;;;;10.85;63.97;103318.56;4976963;28;125014;-72
2022/01/17 11:44:01;;;;;;;13.30;3.55;;;;;;;10.89;64.18;103325.63;4987256;28;122664;-71
2022/01/17 11:46:31;;;;;;;15.57;3.85;;;;;;;10.93;64.01;103326.50;4995963;28;114481;-71
2022/01/17 11:49:04;;;;;;;8.27;2.92;;;;;;;10.95;63.65;103336.19;4993622;28;114852;-72
2022/01/17 11:51:46;;;;;;;10.02;3.10;;;;;;;10.98;63.65;103345.88;5003573;28;124305;-72